Latest Weather Observations for Warburto Point

IDS60801

Issued at 7:41 am CDT Tuesday 7 December 2021 (issued every 10 minutes, with the page automatically refreshed every 10 minutes)

About weather observations | Map of weather stations | Latest weather observations for SA | Other Formats
Station Details ID: 022053 Name: WARBURTO POINT Lat: -34.00 Lon: 137.53 Height: 1.0 m
Data from the previous 72 hours. | See also: Recent months at Warburto Point
Date/Time
CDT
Temp
°C
App
Temp
°C
Dew
Point
°C
Rel
Hum
%
Delta-T
°C
Wind Press
QNH
hPa
Press
MSL
hPa
Rain since
9am
mm
Dir  Spd
km/h
Gust
km/h
Spd
kts
Gust
kts
07/07:30am - - - - - S 35 44 19 24 - - -
07/07:00am - - - - - SSE 33 43 18 23 - - -
07/06:30am - - - - - S 28 33 15 18 - - -
07/06:00am - - - - - SSE 22 30 12 16 - - -
07/05:30am - - - - - SSE 24 28 13 15 - - -
07/05:00am - - - - - SSE 20 26 11 14 - - -
07/04:30am - - - - - SSE 20 28 11 15 - - -
07/04:00am - - - - - S 26 32 14 17 - - -
07/03:30am - - - - - S 24 30 13 16 - - -
07/03:00am - - - - - S 20 26 11 14 - - -
07/02:30am - - - - - S 24 30 13 16 - - -
07/02:00am - - - - - S 22 28 12 15 - - -
07/01:30am - - - - - SSW 28 33 15 18 - - -
07/01:00am - - - - - SSW 28 33 15 18 - - -
07/12:30am - - - - - SSW 30 37 16 20 - - -
07/12:00am - - - - - SSW 28 33 15 18 - - -
 
Date/Time
CDT
Temp
°C
App
Temp
°C
Dew
Point
°C
Rel
Hum
%
Delta-T
°C
Wind Press
QNH
hPa
Press
MSL
hPa
Rain since
9am
mm
Dir  Spd
km/h
Gust
km/h
Spd
kts
Gust
kts
06/11:30pm - - - - - SSW 30 37 16 20 - - -
06/11:00pm - - - - - SSW 32 41 17 22 - - -
06/10:30pm - - - - - SSW 35 46 19 25 - - -
06/10:00pm - - - - - SSW 35 46 19 25 - - -
06/09:30pm - - - - - SSW 39 48 21 26 - - -
06/09:00pm - - - - - SSW 37 44 20 24 - - -
06/08:30pm - - - - - SSW 37 46 20 25 - - -
06/08:00pm - - - - - SSW 35 44 19 24 - - -
06/07:30pm - - - - - SSW 37 48 20 26 - - -
06/07:00pm - - - - - SSW 37 48 20 26 - - -
06/06:30pm - - - - - SSW 41 50 22 27 - - -
06/06:00pm - - - - - SSW 37 50 20 27 - - -
06/05:30pm - - - - - SSW 35 44 19 24 - - -
06/05:00pm - - - - - SSW 39 50 21 27 - - -
06/04:30pm - - - - - SSW 35 44 19 24 - - -
06/04:00pm - - - - - SSW 35 44 19 24 - - -
06/03:30pm - - - - - SSW 35 41 19 22 - - -
06/03:00pm - - - - - SSW 28 33 15 18 - - -
06/02:30pm - - - - - SSW 33 41 18 22 - - -
06/02:00pm - - - - - SSW 33 43 18 23 - - -
06/01:32pm - - - - - SW 28 46 15 25 - - -
06/01:30pm - - - - - SW 26 35 14 19 - - -
06/01:00pm - - - - - SW 30 39 16 21 - - -
06/12:30pm - - - - - SW 32 39 17 21 - - -
06/12:00pm - - - - - SW 28 32 15 17 - - -
06/11:30am - - - - - SW 26 33 14 18 - - -
06/11:00am - - - - - SW 28 33 15 18 - - -
06/10:30am - - - - - WSW 15 20 8 11 - - -
06/10:00am - - - - - WSW 15 19 8 10 - - -
06/09:30am - - - - - WNW 13 15 7 8 - - -
06/09:00am - - - - - WNW 9 13 5 7 - - -
06/08:30am - - - - - WNW 11 15 6 8 - - -
06/08:00am - - - - - CALM 0 0 0 0 - - -
06/07:30am - - - - - SE 9 11 5 6 - - -
06/07:00am - - - - - SE 13 15 7 8 - - -
06/06:30am - - - - - SE 17 19 9 10 - - -
06/06:00am - - - - - SE 15 19 8 10 - - -
06/05:30am - - - - - SE 20 26 11 14 - - -
06/05:00am - - - - - SSE 22 26 12 14 - - -
06/04:30am - - - - - S 28 33 15 18 - - -
06/04:00am - - - - - S 26 32 14 17 - - -
06/03:30am - - - - - S 28 32 15 17 - - -
06/03:00am - - - - - SSW 22 28 12 15 - - -
06/02:30am - - - - - SSW 13 17 7 9 - - -
06/02:00am - - - - - S 17 19 9 10 - - -
06/01:30am - - - - - SSW 15 17 8 9 - - -
06/01:00am - - - - - S 13 17 7 9 - - -
06/12:30am - - - - - SW 17 20 9 11 - - -
06/12:00am - - - - - SSW 13 17 7 9 - - -
 
Date/Time
CDT
Temp
°C
App
Temp
°C
Dew
Point
°C
Rel
Hum
%
Delta-T
°C
Wind Press
QNH
hPa
Press
MSL
hPa
Rain since
9am
mm
Dir  Spd
km/h
Gust
km/h
Spd
kts
Gust
kts
05/11:30pm - - - - - S 15 19 8 10 - - -
05/11:00pm - - - - - SSE 15 19 8 10 - - -
05/10:30pm - - - - - SSE 17 20 9 11 - - -
05/10:00pm - - - - - SSE 17 22 9 12 - - -
05/09:30pm - - - - - SE 19 22 10 12 - - -
05/09:00pm - - - - - SE 28 32 15 17 - - -
05/08:30pm - - - - - SSE 24 28 13 15 - - -
05/08:00pm - - - - - SSW 22 28 12 15 - - -
05/07:30pm - - - - - SSW 24 32 13 17 - - -
05/07:00pm - - - - - SSW 22 28 12 15 - - -
05/06:30pm - - - - - S 26 32 14 17 - - -
05/06:00pm - - - - - S 28 37 15 20 - - -
05/05:30pm - - - - - SSW 30 35 16 19 - - -
05/05:00pm - - - - - SW 28 35 15 19 - - -
05/04:30pm - - - - - SW 26 32 14 17 - - -
05/04:00pm - - - - - SW 26 32 14 17 - - -
05/03:30pm - - - - - SW 26 32 14 17 - - -
05/03:00pm - - - - - SW 26 32 14 17 - - -
05/02:30pm - - - - - SW 24 32 13 17 - - -
05/02:00pm - - - - - SW 22 28 12 15 - - -
05/01:30pm - - - - - SW 22 26 12 14 - - -
05/01:00pm - - - - - SW 22 30 12 16 - - -
05/12:30pm - - - - - WSW 19 26 10 14 - - -
05/12:00pm - - - - - W 17 20 9 11 - - -
05/11:30am - - - - - WSW 9 15 5 8 - - -
05/11:00am - - - - - ENE 13 24 7 13 - - -
05/10:30am - - - - - ENE 15 20 8 11 - - -
05/10:00am - - - - - ENE 17 24 9 13 - - -
05/09:30am - - - - - ESE 22 30 12 16 - - -
05/09:00am - - - - - ESE 22 30 12 16 - - -
05/08:30am - - - - - ESE 20 28 11 15 - - -
05/08:00am - - - - - ESE 20 26 11 14 - - -
05/07:30am - - - - - ESE 11 15 6 8 - - -
05/07:00am - - - - - ESE 13 17 7 9 - - -
05/06:30am - - - - - ESE 17 20 9 11 - - -
05/06:00am - - - - - ESE 19 26 10 14 - - -
05/05:30am - - - - - SE 20 26 11 14 - - -
05/05:00am - - - - - SE 22 28 12 15 - - -
05/04:30am - - - - - SE 22 30 12 16 - - -
05/04:00am - - - - - SE 19 24 10 13 - - -
05/03:30am - - - - - SE 19 24 10 13 - - -
05/03:00am - - - - - SE 19 26 10 14 - - -
05/02:30am - - - - - SE 22 32 12 17 - - -
05/02:00am - - - - - SE 22 32 12 17 - - -
05/01:30am - - - - - SE 20 30 11 16 - - -
05/01:00am - - - - - SE 19 26 10 14 - - -
05/12:30am - - - - - SE 20 28 11 15 - - -
05/12:00am - - - - - SSE 26 32 14 17 - - -
 
Date/Time
CDT
Temp
°C
App
Temp
°C
Dew
Point
°C
Rel
Hum
%
Delta-T
°C
Wind Press
QNH
hPa
Press
MSL
hPa
Rain since
9am
mm
Dir  Spd
km/h
Gust
km/h
Spd
kts
Gust
kts
04/11:30pm - - - - - SSE 26 32 14 17 - - -
04/11:00pm - - - - - SSE 30 37 16 20 - - -
04/10:30pm - - - - - SSE 26 33 14 18 - - -
04/10:00pm - - - - - SSE 24 32 13 17 - - -
04/09:30pm - - - - - SSE 26 30 14 16 - - -
04/09:00pm - - - - - SE 28 33 15 18 - - -
04/08:30pm - - - - - SSE 28 33 15 18 - - -
04/08:00pm - - - - - SSE 28 33 15 18 - - -
04/07:30pm - - - - - SSW 32 41 17 22 - - -
04/07:00pm - - - - - SSW 33 44 18 24 - - -
04/06:30pm - - - - - SSW 35 44 19 24 - - -
04/06:00pm - - - - - SSW 35 43 19 23 - - -
04/05:30pm - - - - - SSW 37 48 20 26 - - -
04/05:00pm - - - - - SSW 35 48 19 26 - - -
04/04:30pm - - - - - SW 35 48 19 26 - - -
04/04:00pm - - - - - SW 39 52 21 28 - - -
04/03:30pm - - - - - SW 39 48 21 26 - - -
04/03:00pm - - - - - SW 35 48 19 26 - - -
04/02:30pm - - - - - SSW 37 48 20 26 - - -
04/02:00pm - - - - - SW 37 48 20 26 - - -
04/01:30pm - - - - - SW 35 44 19 24 - - -
04/01:00pm - - - - - SW 33 41 18 22 - - -
04/12:30pm - - - - - SW 33 41 18 22 - - -
04/12:00pm - - - - - SW 30 39 16 21 - - -
04/11:30am - - - - - SW 26 33 14 18 - - -
04/11:00am - - - - - S 17 26 9 14 - - -
04/10:30am - - - - - SSE 17 22 9 12 - - -
04/10:00am - - - - - SSE 15 24 8 13 - - -
04/09:30am - - - - - SSE 24 30 13 16 - - -
04/09:00am - - - - - SSE 24 33 13 18 - - -
04/08:30am - - - - - S 28 35 15 19 - - -
04/08:00am - - - - - S 32 39 17 21 - - -

Other formats

Comma delimited format used in spreadsheet applications
http://www.bom.gov.au/fwo/IDS60801/IDS60801.94666.axf

JavaScript Object Notation format (JSON) in row-major order
http://www.bom.gov.au/fwo/IDS60801/IDS60801.94666.json

Data quality

Most of these data are generated automatically and are frequently updated. Quality checks on data are not normally performed. It is possible for incorrect values to appear. Refer to information at About Latest Weather Observations and please check the disclaimer before using these data.